Cathedral City, CA (92234)

7:19 PM PDT on July 01, 2015 (GMT -0700)
Cat City TA | | Change Station
CLOSE
Current Station
Personal Weather Station
Location: Cathedral City, CA
Elevation: 384 ft
Nearby Weather Stations

Elev 384 ft 33.83 °N, 116.47 °W | Updated 19 minutes ago

Mostly Cloudy
Mostly Cloudy
93.9 °F
Feels Like 96 °F
N
1.8
Wind Variable Wind from ESE
Gusts 2.5 mph

Today
High -- | Low -- °F
--% Chance of Precip.
Yesterday
High -- | Low -- °F
Precip. -- in
5:38 AM 8:00 PM
Full, 100% visible
Pressure 29.82 in
Visibility 10.0 miles
Clouds Clear
Heat Index 96 °F
Dew Point 64 °F
Humidity 37%
Rainfall 0.00 in
Snow Depth Not available.
UV 1.0 out of 12
Pollen 4.50 out of 12
Air Quality Not available.
Flu Activity Not available.
METAR KPSP 020153Z 11008KT 10SM CLR 36/18 A2983 RMK AO2 SLP097 T03560183

More Conditions Fewer Conditions

Pressure 29.82 in
Visibility 10.0 miles
Clouds Clear
Heat Index 96 °F
Dew Point 64 °F
Humidity 37%
Rainfall 0.00 in
Snow Depth Not available.
UV 1.0 out of 12
Pollen 4.50 out of 12
Air Quality Not available.
Flu Activity Not available.
METAR KPSP 020153Z 11008KT 10SM CLR 36/18 A2983 RMK AO2 SLP097 T03560183

More Conditions Fewer Conditions

10-Day Weather Forecast

×

Almanac

Astronomy

Jul. 01, 2015 Rise Set
Actual Time
Civil Twilight
Nautical Twilight
Astronomical Twilight
Moon
Length of Visible Light
Length of Day
Tomorrow will be .
, % of the Moon is Illuminated

Today's Extremes

State Highs State Lows

Community

WunderPhotos

Upload Photos

1,834,376 photos uploaded!

WunderBlogs® & News

Nearby

Air Quality

  Air Quality AQ Index Pollutant
Not available.

Snow Depth

Station Depth Elevation

Earthquake Activity

City Distance Mag. Time & Date
Minimum magnitude displayed is 2.5.

Coastal Water Temperatures

Place Temperature

Stations

Nearby Weather Stations

Station Location Temp. Windchill Dew Point Humidity Wind Precip. Elev Updated Type